Time;durP1;ratioP1;P1;durP2;ratioP2;P2;SDS_P1;SDS_P2;PMS_P1;PMS_P2;Temp;Humidity;BMP_temperature;BMP_pressure;BME280_temperature;BME280_humidity;BME280_pressure;Samples;Min_cycle;Max_cycle;Signal;HPM_P1;HPM_P2
2023/10/22 00:37:39;;;;;;;0.30;0.30;;;;;;;;;;5023417;28;20088;-82
2023/10/22 00:40:06;;;;;;;1.48;0.30;;;;;;;;;;5018967;28;20050;-82
2023/10/22 00:42:32;;;;;;;0.40;0.30;;;;;;;;;;5021885;28;20037;-82
2023/10/22 00:44:57;;;;;;;1.08;0.30;;;;;;;;;;5033061;28;20038;-83
2023/10/22 00:47:23;;;;;;;0.10;0.10;;;;;;;;;;5009185;28;20136;-82
2023/10/22 00:49:48;;;;;;;0.40;0.30;;;;;;;;;;5022040;28;20037;-83
2023/10/22 00:52:15;;;;;;;1.08;0.25;;;;;;;;;;5018417;28;20038;-82
2023/10/22 00:54:40;;;;;;;1.85;0.40;;;;;;;;;;5033240;28;20092;-82
2023/10/22 00:57:07;;;;;;;0.20;0.20;;;;;;;;;;5029250;28;20108;-82
2023/10/22 00:59:33;;;;;;;0.20;0.20;;;;;;;;;;5025282;28;20037;-82
2023/10/22 01:01:59;;;;;;;0.20;0.20;;;;;;;;;;5015890;28;20386;-83
2023/10/22 01:04:24;;;;;;;0.47;0.20;;;;;;;;;;5032255;28;20116;-82
2023/10/22 01:06:50;;;;;;;0.20;0.15;;;;;;;;;;5029955;28;20068;-82
2023/10/22 01:09:16;;;;;;;1.30;0.70;;;;;;;;;;5024213;28;20083;-82
2023/10/22 01:12:17;;;;;;;0.43;0.30;;;;;;;;;;5019468;28;20042;-82
2023/10/22 01:14:42;;;;;;;1.05;0.40;;;;;;;;;;5009089;28;20038;-82
2023/10/22 01:17:08;;;;;;;1.45;0.30;;;;;;;;;;5024830;28;20041;-82
2023/10/22 01:19:33;;;;;;;1.15;0.63;;;;;;;;;;5026672;28;20033;-82
2023/10/22 01:21:59;;;;;;;0.75;0.30;;;;;;;;;;5020108;28;20172;-81
2023/10/22 01:24:25;;;;;;;1.05;0.40;;;;;;;;;;5026158;28;20029;-83
2023/10/22 01:26:50;;;;;;;2.35;0.47;;;;;;;;;;5032492;28;20040;-83
2023/10/22 01:29:16;;;;;;;0.30;0.30;;;;;;;;;;5028056;28;20038;-83
2023/10/22 01:31:41;;;;;;;0.40;0.20;;;;;;;;;;5022128;28;20032;-83
2023/10/22 01:34:07;;;;;;;0.30;0.30;;;;;;;;;;5021879;28;20037;-83
2023/10/22 01:36:32;;;;;;;0.85;0.25;;;;;;;;;;5035053;28;20412;-83
2023/10/22 01:38:58;;;;;;;0.68;0.40;;;;;;;;;;5029080;28;20116;-82
2023/10/22 01:41:23;;;;;;;1.10;0.35;;;;;;;;;;5024718;28;20037;-82
2023/10/22 01:43:49;;;;;;;1.25;0.40;;;;;;;;;;5020938;28;20038;-82
2023/10/22 01:46:14;;;;;;;3.45;0.40;;;;;;;;;;5031796;28;20029;-83
2023/10/22 01:48:41;;;;;;;0.73;0.30;;;;;;;;;;5032094;28;20089;-83
2023/10/22 01:51:06;;;;;;;0.77;0.40;;;;;;;;;;5026717;28;20127;-83
2023/10/22 01:53:31;;;;;;;0.90;0.28;;;;;;;;;;5021457;28;20037;-82
2023/10/22 01:55:57;;;;;;;1.02;0.40;;;;;;;;;;5026955;28;20075;-82
2023/10/22 01:58:23;;;;;;;1.40;0.40;;;;;;;;;;5031238;28;20034;-82
2023/10/22 02:00:48;;;;;;;0.20;0.20;;;;;;;;;;5025528;28;20113;-82
2023/10/22 02:03:18;;;;;;;0.73;0.32;;;;;;;;;;5022842;28;20033;-83
2023/10/22 02:05:43;;;;;;;0.85;0.30;;;;;;;;;;5021010;28;20135;-83
2023/10/22 02:08:08;;;;;;;0.40;0.30;;;;;;;;;;5032410;28;20065;-83
2023/10/22 02:10:34;;;;;;;0.32;0.22;;;;;;;;;;5028740;28;20029;-83
2023/10/22 02:13:00;;;;;;;0.28;0.28;;;;;;;;;;5022941;28;20047;-83
2023/10/22 02:15:26;;;;;;;1.55;0.40;;;;;;;;;;5018272;28;20041;-83
2023/10/22 02:17:52;;;;;;;1.40;0.20;;;;;;;;;;5032197;28;20175;-83
2023/10/22 02:20:18;;;;;;;0.30;0.30;;;;;;;;;;5029694;28;20060;-83
2023/10/22 02:22:43;;;;;;;0.47;0.20;;;;;;;;;;5025379;28;20502;-83
2023/10/22 02:25:09;;;;;;;0.63;0.30;;;;;;;;;;5019699;28;20522;-83
2023/10/22 02:27:35;;;;;;;0.40;0.20;;;;;;;;;;5035438;28;20041;-83
2023/10/22 02:30:00;;;;;;;0.20;0.20;;;;;;;;;;5031661;28;20172;-83
2023/10/22 02:32:26;;;;;;;0.57;0.28;;;;;;;;;;5026487;28;20048;-83
2023/10/22 02:34:52;;;;;;;0.30;0.20;;;;;;;;;;5021184;28;20061;-83
2023/10/22 02:37:19;;;;;;;0.68;0.30;;;;;;;;;;5020552;28;20036;-83
2023/10/22 02:39:44;;;;;;;0.20;0.20;;;;;;;;;;5032872;28;20037;-83
2023/10/22 02:42:10;;;;;;;0.20;0.20;;;;;;;;;;5027137;28;20681;-83
2023/10/22 02:44:37;;;;;;;1.30;0.20;;;;;;;;;;5023318;28;20030;-83
2023/10/22 02:47:04;;;;;;;0.30;0.30;;;;;;;;;;5017584;28;20037;-83
2023/10/22 02:49:30;;;;;;;0.30;0.20;;;;;;;;;;5030982;28;20037;-83
2023/10/22 02:51:55;;;;;;;0.68;0.30;;;;;;;;;;5028866;28;20037;-83
2023/10/22 02:54:21;;;;;;;1.58;0.30;;;;;;;;;;5024449;28;20047;-83
2023/10/22 02:56:47;;;;;;;1.48;0.32;;;;;;;;;;5019081;28;20128;-83
2023/10/22 02:59:13;;;;;;;1.05;0.40;;;;;;;;;;5026754;28;20055;-83
2023/10/22 03:01:38;;;;;;;0.65;0.45;;;;;;;;;;5022024;28;20092;-83
2023/10/22 03:04:04;;;;;;;0.20;0.20;;;;;;;;;;5025052;28;20029;-83
2023/10/22 03:06:30;;;;;;;0.50;0.30;;;;;;;;;;5021274;28;20046;-82
2023/10/22 03:08:55;;;;;;;0.65;0.40;;;;;;;;;;5020368;28;20096;-82
2023/10/22 03:11:21;;;;;;;0.40;0.30;;;;;;;;;;5030198;28;20049;-82
2023/10/22 03:13:50;;;;;;;0.47;0.30;;;;;;;;;;5027193;28;20025;-83
2023/10/22 03:16:16;;;;;;;0.30;0.30;;;;;;;;;;5021460;28;20037;-82
2023/10/22 03:18:44;;;;;;;0.52;0.30;;;;;;;;;;5017320;28;20514;-82
2023/10/22 03:21:30;;;;;;;0.95;0.32;;;;;;;;;;5032218;28;20049;-82
2023/10/22 03:23:56;;;;;;;1.05;0.57;;;;;;;;;;5027482;28;20049;-82
2023/10/22 03:26:21;;;;;;;1.42;0.40;;;;;;;;;;5021957;28;20049;-83
2023/10/22 03:28:50;;;;;;;0.22;0.22;;;;;;;;;;5018654;28;20038;-83
2023/10/22 03:31:15;;;;;;;0.50;0.30;;;;;;;;;;5029438;28;20544;-83
2023/10/22 03:33:41;;;;;;;0.30;0.30;;;;;;;;;;5028836;28;20033;-82
2023/10/22 03:36:09;;;;;;;0.55;0.28;;;;;;;;;;5023127;28;20480;-82
2023/10/22 03:38:35;;;;;;;1.08;0.43;;;;;;;;;;5018231;28;20030;-82
2023/10/22 03:41:05;;;;;;;0.40;0.30;;;;;;;;;;5024603;28;20042;-83
2023/10/22 03:43:31;;;;;;;2.00;0.30;;;;;;;;;;5030056;28;20398;-83
2023/10/22 03:45:58;;;;;;;0.35;0.30;;;;;;;;;;5024949;28;20036;-83
2023/10/22 03:48:25;;;;;;;0.50;0.30;;;;;;;;;;5016780;28;20505;-82
2023/10/22 03:50:50;;;;;;;0.65;0.30;;;;;;;;;;5020366;28;20109;-82
2023/10/22 03:53:16;;;;;;;0.65;0.40;;;;;;;;;;5029238;28;20053;-83
2023/10/22 03:55:42;;;;;;;0.20;0.20;;;;;;;;;;5024094;28;20407;-82
2023/10/22 03:58:07;;;;;;;0.55;0.30;;;;;;;;;;5021790;28;20452;-83
2023/10/22 04:00:33;;;;;;;0.35;0.25;;;;;;;;;;5018153;28;20580;-83
2023/10/22 04:03:00;;;;;;;0.68;0.22;;;;;;;;;;5034872;28;20044;-82
2023/10/22 04:05:26;;;;;;;0.98;0.30;;;;;;;;;;5031745;28;20120;-82
2023/10/22 04:07:51;;;;;;;0.20;0.20;;;;;;;;;;5023881;28;20462;-83
2023/10/22 04:10:17;;;;;;;0.20;0.20;;;;;;;;;;5022342;28;20040;-82
2023/10/22 04:12:42;;;;;;;1.02;0.30;;;;;;;;;;5029610;28;20033;-82
2023/10/22 04:15:09;;;;;;;0.32;0.28;;;;;;;;;;5033484;28;20037;-83
2023/10/22 04:17:35;;;;;;;0.30;0.30;;;;;;;;;;5028910;28;20049;-83
2023/10/22 04:20:00;;;;;;;0.93;0.40;;;;;;;;;;5024574;28;20030;-82
2023/10/22 04:22:26;;;;;;;3.35;0.63;;;;;;;;;;5024746;28;20033;-82
2023/10/22 04:24:52;;;;;;;0.32;0.32;;;;;;;;;;5034680;28;20092;-82
2023/10/22 04:27:18;;;;;;;0.40;0.30;;;;;;;;;;5030038;28;20041;-82
2023/10/22 04:29:46;;;;;;;1.27;0.68;;;;;;;;;;5024939;28;20701;-82
2023/10/22 04:32:12;;;;;;;1.75;0.80;;;;;;;;;;5020016;28;20022;-82
2023/10/22 04:34:37;;;;;;;1.60;0.50;;;;;;;;;;5034492;28;20458;-82
2023/10/22 04:37:04;;;;;;;0.50;0.50;;;;;;;;;;5030604;28;20064;-82
2023/10/22 04:39:30;;;;;;;2.83;0.68;;;;;;;;;;5027172;28;20503;-83
2023/10/22 04:41:56;;;;;;;0.50;0.50;;;;;;;;;;5018118;28;20041;-82
2023/10/22 04:44:22;;;;;;;0.93;0.50;;;;;;;;;;5030265;28;20041;-82
2023/10/22 04:46:49;;;;;;;0.85;0.60;;;;;;;;;;5027510;28;20034;-82
2023/10/22 04:49:14;;;;;;;1.40;0.50;;;;;;;;;;5027885;28;20034;-82
2023/10/22 04:51:40;;;;;;;2.58;1.45;;;;;;;;;;5022244;28;20045;-82
2023/10/22 04:54:05;;;;;;;0.40;0.40;;;;;;;;;;5025959;28;20030;-82
2023/10/22 04:56:32;;;;;;;1.58;0.50;;;;;;;;;;5033275;28;20033;-82
2023/10/22 04:58:57;;;;;;;0.63;0.55;;;;;;;;;;5028958;28;20443;-82
2023/10/22 05:01:23;;;;;;;1.42;0.60;;;;;;;;;;5023306;28;20033;-82
2023/10/22 05:03:48;;;;;;;0.60;0.45;;;;;;;;;;5019237;28;20034;-82
2023/10/22 05:06:14;;;;;;;1.45;0.60;;;;;;;;;;5033776;28;20064;-83
2023/10/22 05:08:40;;;;;;;1.95;0.47;;;;;;;;;;5030110;28;20538;-82
2023/10/22 05:11:06;;;;;;;0.93;0.40;;;;;;;;;;5023892;28;20034;-82
2023/10/22 05:13:34;;;;;;;0.45;0.45;;;;;;;;;;5020838;28;20255;-83
2023/10/22 05:15:59;;;;;;;0.88;0.45;;;;;;;;;;5030118;28;20068;-83
2023/10/22 05:18:26;;;;;;;0.60;0.30;;;;;;;;;;5031528;28;20488;-83
2023/10/22 05:20:52;;;;;;;0.90;0.50;;;;;;;;;;5026148;28;20083;-83
2023/10/22 05:23:17;;;;;;;1.00;0.40;;;;;;;;;;5020605;28;20105;-83
2023/10/22 05:25:43;;;;;;;0.40;0.40;;;;;;;;;;5024046;28;20079;-83
2023/10/22 05:28:08;;;;;;;0.60;0.40;;;;;;;;;;5031887;28;20041;-83
2023/10/22 05:30:34;;;;;;;1.17;0.60;;;;;;;;;;5028053;28;20044;-83
2023/10/22 05:33:01;;;;;;;0.57;0.40;;;;;;;;;;5019795;28;20803;-83
2023/10/22 05:35:27;;;;;;;0.68;0.40;;;;;;;;;;5018433;28;20034;-83
2023/10/22 05:37:53;;;;;;;0.40;0.40;;;;;;;;;;5033773;28;20029;-83
2023/10/22 05:40:18;;;;;;;0.77;0.45;;;;;;;;;;5028879;28;20033;-83
2023/10/22 05:42:44;;;;;;;0.52;0.47;;;;;;;;;;5023046;28;20065;-83
2023/10/22 05:45:09;;;;;;;1.17;0.30;;;;;;;;;;5019735;28;20192;-83
2023/10/22 05:47:35;;;;;;;1.70;0.52;;;;;;;;;;5029930;28;20405;-83
2023/10/22 05:50:02;;;;;;;1.55;0.47;;;;;;;;;;5030000;28;20057;-83
2023/10/22 05:52:28;;;;;;;0.30;0.30;;;;;;;;;;5021462;28;20068;-83
2023/10/22 05:54:54;;;;;;;0.68;0.35;;;;;;;;;;5021218;28;20132;-83
2023/10/22 05:57:22;;;;;;;0.60;0.28;;;;;;;;;;5025004;28;20018;-83
2023/10/22 05:59:48;;;;;;;0.50;0.50;;;;;;;;;;5031325;28;20029;-83
2023/10/22 06:02:14;;;;;;;0.60;0.60;;;;;;;;;;5026445;28;20042;-83
2023/10/22 06:04:39;;;;;;;0.70;0.50;;;;;;;;;;5022024;28;20052;-83
2023/10/22 06:07:07;;;;;;;1.05;0.50;;;;;;;;;;5020964;28;20116;-83
2023/10/22 06:09:34;;;;;;;0.50;0.50;;;;;;;;;;5030920;28;20041;-83
2023/10/22 06:12:00;;;;;;;0.60;0.30;;;;;;;;;;5026106;28;20127;-83
2023/10/22 06:14:26;;;;;;;1.00;0.47;;;;;;;;;;5022124;28;20046;-82
2023/10/22 06:16:51;;;;;;;0.73;0.47;;;;;;;;;;5016702;28;20132;-82
2023/10/22 06:19:17;;;;;;;0.90;0.50;;;;;;;;;;5028551;28;20033;-82
2023/10/22 06:21:42;;;;;;;0.90;0.60;;;;;;;;;;5026960;28;20029;-82
2023/10/22 06:24:09;;;;;;;0.50;0.40;;;;;;;;;;5022358;28;20574;-83
2023/10/22 06:26:34;;;;;;;1.15;0.40;;;;;;;;;;5018541;28;20038;-82
2023/10/22 06:29:00;;;;;;;0.55;0.30;;;;;;;;;;5033765;28;20393;-84
2023/10/22 06:31:26;;;;;;;1.00;0.40;;;;;;;;;;5023843;28;20045;-84
2023/10/22 06:33:51;;;;;;;0.57;0.40;;;;;;;;;;5025391;28;20030;-83
2023/10/22 06:36:22;;;;;;;0.40;0.40;;;;;;;;;;5018872;28;20029;-83
2023/10/22 06:38:48;;;;;;;0.63;0.45;;;;;;;;;;5019787;28;20116;-83
2023/10/22 06:41:20;;;;;;;0.68;0.40;;;;;;;;;;5029499;28;20048;-83
2023/10/22 06:43:47;;;;;;;16.95;7.13;;;;;;;;;;5026175;28;20488;-84
2023/10/22 06:46:14;;;;;;;0.80;0.80;;;;;;;;;;5020846;28;20037;-83
2023/10/22 06:48:40;;;;;;;2.35;1.23;;;;;;;;;;5016283;28;20045;-83
2023/10/22 06:51:10;;;;;;;2.00;1.63;;;;;;;;;;5030062;28;20033;-83
2023/10/22 06:53:36;;;;;;;1.70;1.40;;;;;;;;;;5022150;28;20029;-83
2023/10/22 06:56:03;;;;;;;2.95;1.20;;;;;;;;;;5022511;28;20038;-83
2023/10/22 06:58:29;;;;;;;2.88;1.35;;;;;;;;;;5017156;28;20033;-83
2023/10/22 07:01:09;;;;;;;5.82;3.38;;;;;;;;;;5027586;28;20052;-84
2023/10/22 07:03:35;;;;;;;3.35;1.80;;;;;;;;;;5028234;28;20049;-83
2023/10/22 07:06:01;;;;;;;8.32;4.82;;;;;;;;;;5019489;28;20042;-83
2023/10/22 07:08:28;;;;;;;1.75;1.30;;;;;;;;;;5019304;28;20038;-83
2023/10/22 07:10:53;;;;;;;1.70;1.25;;;;;;;;;;5028272;28;20052;-84
2023/10/22 07:13:20;;;;;;;3.10;1.95;;;;;;;;;;5030402;28;20030;-82
2023/10/22 07:15:47;;;;;;;1.55;1.20;;;;;;;;;;5031945;28;20087;-83
2023/10/22 07:18:13;;;;;;;2.28;1.13;;;;;;;;;;5019999;28;20033;-84
2023/10/22 07:20:39;;;;;;;1.98;0.90;;;;;;;;;;5023920;28;20038;-84
2023/10/22 07:23:04;;;;;;;1.73;1.20;;;;;;;;;;5028729;28;20136;-83
2023/10/22 07:25:31;;;;;;;2.30;1.50;;;;;;;;;;5020716;28;20041;-84
2023/10/22 07:27:56;;;;;;;0.82;0.70;;;;;;;;;;5017616;28;20042;-84
2023/10/22 07:30:22;;;;;;;1.95;0.98;;;;;;;;;;5003831;28;20122;-81
2023/10/22 07:32:50;;;;;;;1.83;0.70;;;;;;;;;;5017933;28;20701;-81
2023/10/22 07:35:16;;;;;;;0.65;0.55;;;;;;;;;;5018200;28;20446;-82
2023/10/22 07:37:44;;;;;;;1.33;0.50;;;;;;;;;;5023206;28;20508;-84
2023/10/22 07:40:11;;;;;;;3.05;0.57;;;;;;;;;;5023736;28;20038;-83
2023/10/22 07:42:36;;;;;;;1.23;0.57;;;;;;;;;;5031783;28;20094;-83
2023/10/22 07:45:02;;;;;;;2.22;0.63;;;;;;;;;;5032128;28;20041;-81
2023/10/22 07:47:28;;;;;;;1.67;0.80;;;;;;;;;;5027688;28;20384;-83
2023/10/22 07:49:53;;;;;;;1.65;0.70;;;;;;;;;;5022943;28;20595;-83
2023/10/22 07:52:18;;;;;;;2.80;0.70;;;;;;;;;;5025253;28;20533;-83
2023/10/22 07:54:47;;;;;;;0.60;0.60;;;;;;;;;;5034461;28;20029;-83
2023/10/22 07:57:13;;;;;;;2.67;0.70;;;;;;;;;;5029129;28;20125;-83
2023/10/22 07:59:38;;;;;;;0.95;0.70;;;;;;;;;;5024807;28;20065;-82
2023/10/22 08:02:04;;;;;;;1.92;1.10;;;;;;;;;;5022387;28;20036;-83
2023/10/22 08:04:29;;;;;;;3.30;1.20;;;;;;;;;;5035546;28;20403;-83
2023/10/22 08:06:54;;;;;;;0.65;0.60;;;;;;;;;;5029212;28;20092;-83
2023/10/22 08:09:20;;;;;;;0.90;0.60;;;;;;;;;;5026042;28;20045;-83
2023/10/22 08:11:45;;;;;;;0.70;0.70;;;;;;;;;;5021364;28;20034;-83
2023/10/22 08:14:11;;;;;;;0.80;0.45;;;;;;;;;;5031607;28;20025;-83
2023/10/22 08:16:36;;;;;;;0.50;0.50;;;;;;;;;;5025921;28;20103;-83
2023/10/22 08:19:02;;;;;;;1.30;0.60;;;;;;;;;;5026181;28;20034;-83
2023/10/22 08:21:27;;;;;;;0.80;0.60;;;;;;;;;;5018120;28;20038;-83
2023/10/22 08:23:53;;;;;;;0.88;0.70;;;;;;;;;;5036194;28;20048;-83
2023/10/22 08:26:21;;;;;;;2.25;0.95;;;;;;;;;;5033007;28;20037;-84
2023/10/22 08:28:46;;;;;;;1.13;0.80;;;;;;;;;;5025360;28;20148;-83
2023/10/22 08:31:12;;;;;;;0.90;0.75;;;;;;;;;;5022433;28;20069;-83
2023/10/22 08:33:37;;;;;;;0.68;0.63;;;;;;;;;;5022046;28;20034;-83
2023/10/22 08:36:07;;;;;;;0.98;0.70;;;;;;;;;;5033478;28;20047;-83
2023/10/22 08:38:33;;;;;;;1.65;1.10;;;;;;;;;;5026481;28;20063;-83
2023/10/22 08:41:00;;;;;;;2.35;0.77;;;;;;;;;;5024762;28;20072;-82
2023/10/22 08:43:32;;;;;;;0.88;0.70;;;;;;;;;;5018156;28;20121;-82
2023/10/22 08:45:58;;;;;;;2.30;0.70;;;;;;;;;;5033073;28;20056;-82
2023/10/22 08:48:24;;;;;;;3.72;1.00;;;;;;;;;;5030184;28;20037;-83
2023/10/22 08:50:51;;;;;;;1.73;0.60;;;;;;;;;;5026059;28;20076;-83
2023/10/22 08:53:17;;;;;;;2.70;0.73;;;;;;;;;;5018969;28;20124;-83
2023/10/22 08:55:47;;;;;;;1.00;0.70;;;;;;;;;;5028415;28;20462;-82
2023/10/22 08:58:18;;;;;;;1.10;0.70;;;;;;;;;;5031929;28;20026;-82
2023/10/22 09:00:45;;;;;;;1.95;0.63;;;;;;;;;;5017319;28;20038;-83
2023/10/22 09:03:16;;;;;;;0.95;0.60;;;;;;;;;;5018195;28;20065;-82
2023/10/22 09:05:42;;;;;;;0.68;0.60;;;;;;;;;;5020327;28;20514;-83
2023/10/22 09:08:08;;;;;;;1.15;0.60;;;;;;;;;;5032153;28;20029;-83
2023/10/22 09:10:34;;;;;;;0.60;0.60;;;;;;;;;;5027083;28;20042;-84
2023/10/22 09:13:22;;;;;;;0.82;0.50;;;;;;;;;;5022418;28;20420;-83
2023/10/22 09:15:56;;;;;;;1.80;0.50;;;;;;;;;;5023475;28;20041;-83
2023/10/22 09:18:21;;;;;;;0.95;0.50;;;;;;;;;;5033051;28;20042;-83
2023/10/22 09:20:47;;;;;;;0.95;0.55;;;;;;;;;;5027189;28;20044;-84
2023/10/22 09:23:23;;;;;;;1.13;0.60;;;;;;;;;;5019377;28;20033;-83
2023/10/22 09:25:55;;;;;;;1.40;0.68;;;;;;;;;;5019521;28;20040;-83
2023/10/22 09:28:25;;;;;;;1.08;0.70;;;;;;;;;;5033563;28;20052;-83
2023/10/22 09:30:58;;;;;;;1.50;0.70;;;;;;;;;;5026519;28;20033;-83
2023/10/22 09:33:40;;;;;;;1.07;0.80;;;;;;;;;;5011352;28;20121;-83
2023/10/22 09:36:06;;;;;;;1.08;0.70;;;;;;;;;;5018623;28;20095;-83
2023/10/22 09:38:48;;;;;;;1.08;0.68;;;;;;;;;;5033848;28;20104;-83
2023/10/22 09:41:23;;;;;;;1.17;0.75;;;;;;;;;;5026238;28;20033;-83
2023/10/22 09:43:53;;;;;;;1.10;0.70;;;;;;;;;;5023414;28;20120;-84
2023/10/22 09:46:18;;;;;;;2.28;0.70;;;;;;;;;;5018230;28;20046;-83
2023/10/22 09:48:46;;;;;;;1.35;0.60;;;;;;;;;;5033489;28;20040;-82
2023/10/22 09:51:14;;;;;;;1.10;0.60;;;;;;;;;;5028917;28;20042;-83
2023/10/22 09:53:44;;;;;;;1.05;0.68;;;;;;;;;;5023194;28;20026;-83
2023/10/22 09:56:10;;;;;;;0.70;0.60;;;;;;;;;;5019151;28;20129;-83
2023/10/22 09:58:42;;;;;;;1.05;0.70;;;;;;;;;;5029209;28;20113;-82
2023/10/22 10:01:10;;;;;;;0.90;0.80;;;;;;;;;;5023819;28;20483;-83
2023/10/22 10:03:37;;;;;;;1.10;0.80;;;;;;;;;;5025223;28;20080;-85
2023/10/22 10:06:06;;;;;;;0.80;0.70;;;;;;;;;;5019656;28;20068;-84
2023/10/22 10:08:36;;;;;;;1.25;0.68;;;;;;;;;;5033763;28;20400;-84
2023/10/22 10:11:03;;;;;;;1.08;0.57;;;;;;;;;;5028747;28;20407;-84
2023/10/22 10:13:29;;;;;;;1.27;0.80;;;;;;;;;;5024007;28;20053;-84
2023/10/22 10:15:59;;;;;;;1.65;0.75;;;;;;;;;;5020060;28;20400;-84
2023/10/22 10:18:59;;;;;;;1.02;0.70;;;;;;;;;;5021202;28;20118;-84
2023/10/22 10:21:34;;;;;;;0.93;0.60;;;;;;;;;;5029086;28;20120;-84
2023/10/22 10:24:17;;;;;;;0.65;0.50;;;;;;;;;;5020783;28;20034;-83
2023/10/22 10:26:44;;;;;;;0.75;0.50;;;;;;;;;;5019501;28;20033;-84
2023/10/22 10:29:34;;;;;;;0.57;0.50;;;;;;;;;;5022628;28;20038;-84
2023/10/22 10:32:15;;;;;;;0.80;0.57;;;;;;;;;;5025931;28;20049;-83
2023/10/22 10:34:46;;;;;;;1.23;0.70;;;;;;;;;;5023055;28;20503;-85
2023/10/22 10:37:31;;;;;;;1.42;0.65;;;;;;;;;;5019103;28;20145;-85
2023/10/22 10:39:56;;;;;;;2.20;0.50;;;;;;;;;;5026951;28;20030;-83
2023/10/22 10:42:28;;;;;;;2.00;0.50;;;;;;;;;;5029202;28;20029;-84
2023/10/22 10:45:00;;;;;;;0.63;0.40;;;;;;;;;;5022035;28;20088;-84
2023/10/22 10:47:28;;;;;;;1.05;0.50;;;;;;;;;;5017953;28;20045;-84
2023/10/22 10:50:04;;;;;;;1.23;0.55;;;;;;;;;;5023819;28;20403;-84
2023/10/22 10:52:52;;;;;;;2.13;0.60;;;;;;;;;;5028688;28;20033;-84
2023/10/22 10:55:20;;;;;;;0.90;0.60;;;;;;;;;;5019400;28;20041;-84
2023/10/22 10:57:52;;;;;;;1.67;1.00;;;;;;;;;;5019234;28;20446;-84
2023/10/22 11:00:24;;;;;;;1.15;0.80;;;;;;;;;;5019870;28;20041;-84
2023/10/22 11:02:51;;;;;;;1.05;0.60;;;;;;;;;;5029311;28;20029;-84
2023/10/22 11:05:29;;;;;;;0.98;0.80;;;;;;;;;;5024184;28;20021;-84
2023/10/22 11:07:55;;;;;;;1.85;0.80;;;;;;;;;;5030900;28;20128;-84
2023/10/22 11:10:21;;;;;;;0.73;0.65;;;;;;;;;;5018686;28;20220;-84
2023/10/22 11:12:46;;;;;;;1.23;0.70;;;;;;;;;;5030315;28;20435;-84
2023/10/22 11:15:13;;;;;;;0.88;0.60;;;;;;;;;;5025199;28;20046;-84
2023/10/22 11:17:42;;;;;;;0.63;0.60;;;;;;;;;;5020405;28;20393;-84
2023/10/22 11:20:09;;;;;;;0.60;0.50;;;;;;;;;;5015961;28;20026;-84
2023/10/22 11:22:38;;;;;;;1.02;0.70;;;;;;;;;;5029247;28;20037;-84
2023/10/22 11:25:08;;;;;;;2.15;0.77;;;;;;;;;;5021596;28;20811;-84
2023/10/22 11:27:38;;;;;;;1.45;0.70;;;;;;;;;;5022150;28;20034;-84
2023/10/22 11:30:05;;;;;;;2.83;1.10;;;;;;;;;;5017051;28;20045;-84
2023/10/22 11:32:31;;;;;;;2.00;1.00;;;;;;;;;;5026795;28;20043;-84
2023/10/22 11:34:56;;;;;;;1.73;0.82;;;;;;;;;;5026010;28;20084;-84
2023/10/22 11:37:30;;;;;;;1.67;0.77;;;;;;;;;;5022231;28;20388;-84
2023/10/22 11:39:56;;;;;;;1.48;0.60;;;;;;;;;;5015388;28;20034;-84
2023/10/22 11:42:22;;;;;;;0.90;0.40;;;;;;;;;;5031849;28;20042;-84
2023/10/22 11:44:48;;;;;;;1.77;0.80;;;;;;;;;;5027550;28;20157;-84
2023/10/22 11:47:33;;;;;;;2.15;0.75;;;;;;;;;;5023184;28;20073;-84
2023/10/22 11:49:59;;;;;;;1.50;0.50;;;;;;;;;;5018040;28;20472;-84
2023/10/22 11:52:37;;;;;;;0.80;0.50;;;;;;;;;;5019325;28;20522;-84
2023/10/22 11:55:07;;;;;;;1.30;0.35;;;;;;;;;;5028327;28;20037;-84
2023/10/22 11:57:36;;;;;;;0.70;0.50;;;;;;;;;;5022711;28;20030;-84
2023/10/22 12:00:02;;;;;;;1.58;0.55;;;;;;;;;;5018627;28;20163;-84
2023/10/22 12:02:30;;;;;;;2.00;0.40;;;;;;;;;;5015727;28;20061;-85
2023/10/22 12:04:56;;;;;;;0.43;0.30;;;;;;;;;;5029551;28;20037;-84
2023/10/22 12:07:22;;;;;;;0.93;0.50;;;;;;;;;;5024111;28;20038;-84
2023/10/22 12:09:47;;;;;;;0.50;0.40;;;;;;;;;;5021321;28;20462;-84
2023/10/22 12:12:13;;;;;;;0.93;0.40;;;;;;;;;;5015427;28;20496;-84
2023/10/22 12:14:39;;;;;;;0.70;0.40;;;;;;;;;;5027420;28;20057;-83
2023/10/22 12:17:05;;;;;;;1.08;0.35;;;;;;;;;;5026737;28;20034;-84
2023/10/22 12:19:31;;;;;;;1.48;0.57;;;;;;;;;;5022330;28;20041;-84
2023/10/22 12:21:56;;;;;;;1.73;0.60;;;;;;;;;;5014006;28;20160;-85
2023/10/22 12:24:22;;;;;;;1.38;0.50;;;;;;;;;;5025170;28;20072;-85
2023/10/22 12:26:47;;;;;;;1.52;0.35;;;;;;;;;;5030962;28;20087;-83
2023/10/22 12:29:13;;;;;;;1.80;0.63;;;;;;;;;;5025918;28;20484;-84
2023/10/22 12:31:39;;;;;;;0.60;0.40;;;;;;;;;;5022173;28;20037;-84
2023/10/22 12:34:04;;;;;;;0.85;0.40;;;;;;;;;;5025103;28;20041;-83
2023/10/22 12:36:30;;;;;;;0.60;0.40;;;;;;;;;;5032968;28;20030;-84
2023/10/22 12:38:56;;;;;;;1.30;0.40;;;;;;;;;;5028023;28;20029;-84
2023/10/22 12:41:21;;;;;;;1.45;0.52;;;;;;;;;;5035052;28;20033;-84
2023/10/22 12:43:47;;;;;;;0.90;0.32;;;;;;;;;;5018950;28;20092;-83
2023/10/22 12:46:13;;;;;;;0.57;0.40;;;;;;;;;;5034914;28;20495;-83
2023/10/22 12:48:38;;;;;;;0.50;0.28;;;;;;;;;;5030385;28;20129;-83
2023/10/22 12:51:04;;;;;;;2.35;0.60;;;;;;;;;;5022326;28;20045;-83
2023/10/22 12:53:29;;;;;;;0.80;0.38;;;;;;;;;;5019082;28;20049;-84
2023/10/22 12:55:58;;;;;;;0.93;0.50;;;;;;;;;;5028785;28;20042;-82
2023/10/22 12:58:24;;;;;;;0.50;0.25;;;;;;;;;;5028866;28;20050;-84
2023/10/22 13:00:49;;;;;;;1.55;0.40;;;;;;;;;;5026121;28;20143;-83
2023/10/22 13:03:15;;;;;;;0.88;0.40;;;;;;;;;;5019507;28;20057;-83
2023/10/22 13:05:41;;;;;;;2.58;0.50;;;;;;;;;;5025213;28;20368;-83
2023/10/22 13:08:09;;;;;;;1.20;0.40;;;;;;;;;;5029875;28;20049;-83
2023/10/22 13:10:36;;;;;;;0.30;0.30;;;;;;;;;;5027068;28;20073;-84
2023/10/22 13:13:03;;;;;;;0.85;0.32;;;;;;;;;;5021189;28;20120;-84
2023/10/22 13:15:28;;;;;;;1.10;0.50;;;;;;;;;;5019478;28;20060;-83
2023/10/22 13:17:54;;;;;;;0.98;0.40;;;;;;;;;;5027311;28;20069;-84
2023/10/22 13:20:19;;;;;;;2.15;0.38;;;;;;;;;;5027005;28;20036;-85
2023/10/22 13:22:45;;;;;;;0.95;0.47;;;;;;;;;;5022757;28;20042;-84
2023/10/22 13:25:11;;;;;;;1.33;0.77;;;;;;;;;;5019548;28;20050;-84
2023/10/22 13:27:36;;;;;;;2.55;0.80;;;;;;;;;;5029617;28;20041;-83
2023/10/22 13:30:02;;;;;;;3.03;0.60;;;;;;;;;;5028502;28;20459;-84
2023/10/22 13:32:28;;;;;;;2.00;0.50;;;;;;;;;;5023924;28;20096;-84
2023/10/22 13:34:53;;;;;;;1.15;0.50;;;;;;;;;;5019665;28;20443;-84
2023/10/22 13:37:19;;;;;;;1.38;0.50;;;;;;;;;;5024994;28;20060;-84
2023/10/22 13:39:45;;;;;;;2.40;0.80;;;;;;;;;;5030686;28;20033;-84
2023/10/22 13:42:10;;;;;;;0.50;0.40;;;;;;;;;;5022620;28;20041;-84
2023/10/22 13:44:36;;;;;;;0.93;0.40;;;;;;;;;;5021853;28;20088;-84
2023/10/22 13:47:01;;;;;;;0.63;0.40;;;;;;;;;;5019878;28;20041;-84
2023/10/22 13:49:30;;;;;;;0.93;0.63;;;;;;;;;;5032229;28;20037;-84
2023/10/22 13:51:55;;;;;;;0.90;0.73;;;;;;;;;;5026657;28;20041;-84
2023/10/22 13:54:21;;;;;;;1.73;0.50;;;;;;;;;;5023025;28;20431;-84
2023/10/22 13:56:46;;;;;;;0.95;0.50;;;;;;;;;;5014235;28;20030;-83
2023/10/22 13:59:14;;;;;;;1.15;0.40;;;;;;;;;;5016695;28;20365;-84
2023/10/22 14:01:40;;;;;;;1.67;0.60;;;;;;;;;;5014453;28;20049;-84
2023/10/22 14:04:06;;;;;;;4.15;2.35;;;;;;;;;;5019925;28;20030;-84
2023/10/22 14:06:32;;;;;;;2.35;1.40;;;;;;;;;;5017493;28;20388;-84
2023/10/22 14:08:58;;;;;;;0.90;0.70;;;;;;;;;;5016344;28;20042;-84
2023/10/22 14:11:25;;;;;;;0.98;0.70;;;;;;;;;;5024441;28;20043;-84
2023/10/22 14:13:53;;;;;;;4.40;1.20;;;;;;;;;;5024494;28;20033;-84
2023/10/22 14:16:22;;;;;;;1.05;0.70;;;;;;;;;;5017203;28;20411;-83
2023/10/22 14:18:47;;;;;;;1.55;0.70;;;;;;;;;;5016256;28;20025;-84
2023/10/22 14:21:16;;;;;;;0.70;0.40;;;;;;;;;;5023224;28;20435;-83
2023/10/22 14:23:42;;;;;;;1.58;0.80;;;;;;;;;;5024122;28;20503;-84
2023/10/22 14:26:08;;;;;;;0.80;0.57;;;;;;;;;;5019682;28;20045;-83
2023/10/22 14:28:33;;;;;;;0.65;0.50;;;;;;;;;;5013426;28;20037;-82
2023/10/22 14:31:07;;;;;;;1.45;0.50;;;;;;;;;;5019388;28;20084;-82
2023/10/22 14:33:33;;;;;;;2.08;0.50;;;;;;;;;;5023643;28;20042;-83
2023/10/22 14:36:03;;;;;;;3.20;2.00;;;;;;;;;;5023253;28;20117;-83
2023/10/22 14:38:29;;;;;;;2.03;1.20;;;;;;;;;;5016314;28;20029;-82
2023/10/22 14:40:55;;;;;;;3.10;0.95;;;;;;;;;;5028664;28;20121;-82
2023/10/22 14:43:20;;;;;;;5.15;2.15;;;;;;;;;;5028112;28;20514;-82
2023/10/22 14:45:46;;;;;;;4.82;2.22;;;;;;;;;;5023621;28;20116;-82
2023/10/22 14:48:11;;;;;;;7.53;3.60;;;;;;;;;;5019140;28;20034;-82
2023/10/22 14:50:37;;;;;;;26.33;11.50;;;;;;;;;;5018800;28;20100;-83
2023/10/22 14:53:03;;;;;;;25.55;12.38;;;;;;;;;;5030380;28;20049;-83
2023/10/22 14:55:29;;;;;;;11.82;5.28;;;;;;;;;;5029867;28;20044;-84
2023/10/22 14:57:54;;;;;;;6.05;2.70;;;;;;;;;;5024946;28;20093;-85
2023/10/22 15:00:20;;;;;;;3.40;2.20;;;;;;;;;;5029220;28;20041;-85
2023/10/22 15:02:46;;;;;;;5.13;1.52;;;;;;;;;;5034937;28;20034;-86
2023/10/22 15:05:11;;;;;;;3.10;2.30;;;;;;;;;;5031461;28;20040;-85
2023/10/22 15:07:38;;;;;;;4.82;2.35;;;;;;;;;;5027018;28;20101;-85
2023/10/22 15:10:06;;;;;;;2.70;2.08;;;;;;;;;;5020901;28;20067;-83
2023/10/22 15:12:32;;;;;;;2.42;1.33;;;;;;;;;;5032507;28;20049;-83
2023/10/22 15:14:58;;;;;;;1.80;0.95;;;;;;;;;;5028188;28;20056;-83
2023/10/22 15:17:23;;;;;;;2.42;1.10;;;;;;;;;;5022802;28;20033;-82
2023/10/22 15:19:49;;;;;;;1.40;0.90;;;;;;;;;;5018581;28;20137;-83